createdAt,value
2023-10-09T00:00:42.855Z,5.10
2023-10-09T00:03:30.406Z,4.40
2023-10-09T00:06:18.365Z,4.90
2023-10-09T00:09:15.142Z,4.75
2023-10-09T00:12:04.464Z,4.47
2023-10-09T00:14:54.144Z,5.03
2023-10-09T00:17:41.276Z,5.00
2023-10-09T00:20:30.519Z,5.35
2023-10-09T00:23:17.778Z,5.72
2023-10-09T00:26:12.634Z,5.92
2023-10-09T00:29:00.139Z,6.42
2023-10-09T00:31:49.092Z,5.45
2023-10-09T00:34:38.028Z,4.47
2023-10-09T00:37:26.690Z,4.87
2023-10-09T00:40:15.896Z,4.70
2023-10-09T00:43:06.212Z,5.20
2023-10-09T00:45:54.613Z,5.10
2023-10-09T00:48:42.493Z,5.65
2023-10-09T00:51:32.170Z,6.03
2023-10-09T00:54:21.126Z,5.37
2023-10-09T00:57:09.052Z,5.45
2023-10-09T01:00:04.483Z,5.40
2023-10-09T01:02:53.922Z,5.65
2023-10-09T01:05:42.700Z,5.87
2023-10-09T01:08:35.497Z,6.12
2023-10-09T01:11:24.091Z,6.00
2023-10-09T01:14:13.497Z,6.10
2023-10-09T01:17:02.488Z,6.20
2023-10-09T01:19:50.091Z,6.33
2023-10-09T01:22:37.725Z,5.90
2023-10-09T01:25:25.068Z,5.67
2023-10-09T01:28:14.536Z,5.42
2023-10-09T01:31:03.281Z,5.78
2023-10-09T01:33:50.610Z,6.15
2023-10-09T01:36:40.745Z,6.15
2023-10-09T01:39:29.619Z,5.92
2023-10-09T01:42:33.788Z,5.75
2023-10-09T01:45:22.696Z,6.08
2023-10-09T01:48:12.592Z,5.90
2023-10-09T01:51:01.237Z,5.87
2023-10-09T01:53:50.277Z,5.42
2023-10-09T01:56:38.991Z,5.40
2023-10-09T01:59:26.521Z,5.37
2023-10-09T02:02:27.595Z,5.53
2023-10-09T02:05:17.035Z,6.92
2023-10-09T02:08:06.363Z,6.03
2023-10-09T02:10:55.628Z,5.65
2023-10-09T02:13:43.845Z,6.00
2023-10-09T02:16:32.875Z,6.40
2023-10-09T02:19:33.643Z,5.65
2023-10-09T02:22:21.215Z,4.92
2023-10-09T02:25:10.856Z,5.60
2023-10-09T02:27:59.602Z,6.60
2023-10-09T02:30:51.501Z,5.30
2023-10-09T02:33:41.158Z,6.30
2023-10-09T02:36:29.963Z,6.62
2023-10-09T02:39:31.230Z,6.87
2023-10-09T02:42:23.083Z,6.92
2023-10-09T02:45:11.496Z,6.42
2023-10-09T02:48:00.870Z,6.95
2023-10-09T02:50:50.526Z,6.80
2023-10-09T02:53:37.866Z,8.05
2023-10-09T02:56:30.209Z,7.10
2023-10-09T02:59:17.710Z,6.78
2023-10-09T03:02:05.239Z,6.55
2023-10-09T03:04:54.174Z,6.58
2023-10-09T03:07:41.565Z,5.95
2023-10-09T03:10:28.715Z,6.80
2023-10-09T03:13:17.945Z,7.15
2023-10-09T03:16:05.132Z,7.00
2023-10-09T03:18:54.568Z,6.00
2023-10-09T03:21:42.200Z,6.83
2023-10-09T03:24:30.197Z,7.58
2023-10-09T03:27:17.501Z,6.75
2023-10-09T03:30:06.818Z,7.22
2023-10-09T03:32:56.401Z,8.05
2023-10-09T03:35:43.980Z,7.60
2023-10-09T03:38:43.725Z,6.75
2023-10-09T03:41:31.295Z,6.62
2023-10-09T03:44:21.517Z,6.40
2023-10-09T03:47:12.150Z,6.53
2023-10-09T03:50:01.431Z,6.47
2023-10-09T03:52:48.454Z,5.97
2023-10-09T03:55:39.762Z,6.22
2023-10-09T03:58:28.917Z,7.28
2023-10-09T04:01:25.454Z,6.80
2023-10-09T04:04:14.649Z,6.22
2023-10-09T04:07:04.135Z,5.78
2023-10-09T04:09:53.089Z,4.92
2023-10-09T04:12:40.647Z,5.53
2023-10-09T04:15:29.904Z,6.15
2023-10-09T04:18:17.410Z,6.62
2023-10-09T04:21:20.956Z,5.95
2023-10-09T04:24:17.321Z,5.78
2023-10-09T04:27:04.884Z,5.83
2023-10-09T04:29:52.206Z,6.20
2023-10-09T04:32:41.477Z,6.17
2023-10-09T04:35:32.002Z,6.08
2023-10-09T04:38:19.727Z,6.00
2023-10-09T04:41:11.041Z,6.40
2023-10-09T04:44:00.148Z,6.10
2023-10-09T04:47:10.017Z,6.67
2023-10-09T04:50:02.085Z,6.25
2023-10-09T04:52:55.377Z,6.08
2023-10-09T04:55:45.376Z,6.15
2023-10-09T04:58:34.252Z,6.25
2023-10-09T05:01:23.210Z,6.00
2023-10-09T05:04:12.341Z,5.87
2023-10-09T05:06:59.651Z,5.50
2023-10-09T05:09:48.568Z,6.35
2023-10-09T05:12:37.532Z,6.83
2023-10-09T05:15:27.091Z,7.08
2023-10-09T05:18:15.971Z,7.72
2023-10-09T05:21:04.830Z,7.05
2023-10-09T05:23:53.934Z,7.58
2023-10-09T05:26:51.552Z,6.65
2023-10-09T05:29:40.552Z,7.67
2023-10-09T05:32:35.752Z,7.65
2023-10-09T05:35:26.095Z,7.17
2023-10-09T05:38:18.032Z,6.97
2023-10-09T05:41:23.888Z,6.47
2023-10-09T05:44:29.764Z,6.10
2023-10-09T05:47:31.377Z,6.25
2023-10-09T05:50:20.488Z,7.95
2023-10-09T05:53:12.584Z,7.35
2023-10-09T05:56:17.913Z,6.97
2023-10-09T05:59:23.475Z,7.22
2023-10-09T06:02:29.614Z,6.75
2023-10-09T06:05:34.742Z,7.78
2023-10-09T06:08:30.483Z,7.03
2023-10-09T06:11:37.491Z,7.65
2023-10-09T06:14:33.583Z,7.10
2023-10-09T06:17:28.335Z,8.18
2023-10-09T06:20:28.929Z,7.87
2023-10-09T06:23:20.291Z,7.25
2023-10-09T06:26:08.863Z,7.25
2023-10-09T06:28:57.958Z,9.10
2023-10-09T06:31:49.684Z,9.80
2023-10-09T06:34:38.887Z,8.93
2023-10-09T06:37:28.121Z,8.80
2023-10-09T06:40:33.296Z,14.65
2023-10-09T06:43:24.429Z,9.28
2023-10-09T06:46:25.414Z,10.45
2023-10-09T06:49:20.436Z,10.32
2023-10-09T06:52:09.328Z,10.35
2023-10-09T06:54:58.138Z,11.10
2023-10-09T06:57:47.074Z,10.30
2023-10-09T07:00:51.977Z,10.80
2023-10-09T07:03:41.357Z,9.85
2023-10-09T07:06:39.676Z,11.30
2023-10-09T07:09:29.265Z,10.70
2023-10-09T07:12:23.932Z,9.78
2023-10-09T07:15:13.106Z,10.85
2023-10-09T07:18:02.106Z,11.65
2023-10-09T07:20:50.916Z,11.80
2023-10-09T07:23:39.828Z,10.68
2023-10-09T07:26:29.091Z,10.65
2023-10-09T07:29:20.592Z,10.10
2023-10-09T07:32:09.378Z,10.95
2023-10-09T07:34:58.297Z,10.82
2023-10-09T07:37:47.370Z,11.03
2023-10-09T07:40:36.648Z,9.50
2023-10-09T07:43:42.933Z,27.95
2023-10-09T07:46:48.563Z,13.95
2023-10-09T07:49:37.809Z,10.23
2023-10-09T07:52:26.698Z,10.35
2023-10-09T07:55:15.693Z,10.32
2023-10-09T07:58:04.509Z,10.00
2023-10-09T08:01:11.719Z,10.53
2023-10-09T08:04:00.620Z,9.08
2023-10-09T08:07:02.425Z,8.75
2023-10-09T08:09:50.051Z,8.83
2023-10-09T08:12:47.988Z,8.58
2023-10-09T08:15:39.668Z,8.78
2023-10-09T08:18:29.644Z,8.40
2023-10-09T08:21:18.970Z,8.78
2023-10-09T08:24:08.538Z,8.55
2023-10-09T08:26:57.707Z,10.23
2023-10-09T08:29:46.780Z,9.05
2023-10-09T08:35:35.026Z,17.30
2023-10-09T08:38:26.015Z,8.85
2023-10-09T08:41:22.146Z,8.63
2023-10-09T08:44:11.298Z,8.60
2023-10-09T08:46:59.041Z,8.18
2023-10-09T08:49:47.426Z,8.15
2023-10-09T08:52:36.468Z,9.03
2023-10-09T08:55:24.106Z,7.95
2023-10-09T08:58:28.322Z,7.97
2023-10-09T09:01:18.935Z,7.00
2023-10-09T09:04:08.881Z,8.05
2023-10-09T09:06:56.440Z,7.65
2023-10-09T09:09:47.038Z,7.78
2023-10-09T09:12:35.976Z,7.55
2023-10-09T09:15:25.076Z,7.62
2023-10-09T09:18:14.136Z,8.03
2023-10-09T09:21:01.868Z,8.50
2023-10-09T09:23:58.817Z,9.10
2023-10-09T09:26:46.651Z,8.88
2023-10-09T09:29:42.882Z,8.30
2023-10-09T09:32:33.552Z,8.05
2023-10-09T09:35:21.209Z,8.45
2023-10-09T09:38:09.192Z,8.85
2023-10-09T09:41:01.632Z,7.83
2023-10-09T09:43:49.299Z,7.55
2023-10-09T09:46:38.663Z,11.60
2023-10-09T09:49:28.691Z,8.88
2023-10-09T09:52:17.599Z,7.80
2023-10-09T09:55:04.916Z,8.00
2023-10-09T09:57:55.325Z,7.50
2023-10-09T10:00:44.668Z,8.50
2023-10-09T10:03:35.160Z,7.83
2023-10-09T10:06:25.682Z,7.90
2023-10-09T10:09:34.639Z,7.37
2023-10-09T10:12:42.721Z,8.28
2023-10-09T10:15:59.231Z,8.50
2023-10-09T10:19:14.860Z,8.30
2023-10-09T10:22:07.557Z,7.65
2023-10-09T10:24:56.596Z,6.97
2023-10-09T10:27:48.596Z,7.05
2023-10-09T10:30:37.510Z,7.03
2023-10-09T10:33:27.017Z,6.30
2023-10-09T10:36:16.191Z,7.00
2023-10-09T10:39:07.983Z,7.28
2023-10-09T10:41:58.348Z,6.92
2023-10-09T10:44:46.139Z,6.60
2023-10-09T10:47:35.094Z,7.17
2023-10-09T10:50:33.784Z,7.00
2023-10-09T10:53:21.199Z,6.47
2023-10-09T10:56:10.124Z,6.72
2023-10-09T10:59:08.158Z,7.33
2023-10-09T11:02:03.358Z,7.45
2023-10-09T11:04:57.251Z,6.80
2023-10-09T11:07:45.093Z,7.40
2023-10-09T11:10:33.098Z,6.72
2023-10-09T11:13:35.286Z,6.50
2023-10-09T11:16:25.807Z,6.75
2023-10-09T11:19:35.636Z,7.55
2023-10-09T11:22:33.968Z,6.17
2023-10-09T11:25:21.121Z,6.60
2023-10-09T11:28:32.393Z,6.78
2023-10-09T11:31:19.869Z,6.60
2023-10-09T11:34:10.331Z,6.17
2023-10-09T11:37:03.344Z,5.47
2023-10-09T11:39:57.878Z,6.15
2023-10-09T11:42:50.731Z,5.40
2023-10-09T11:45:39.110Z,5.75
2023-10-09T11:48:30.958Z,6.17
2023-10-09T11:51:22.374Z,5.97
2023-10-09T11:54:10.175Z,5.30
2023-10-09T11:56:57.699Z,5.78
2023-10-09T11:59:46.125Z,5.33
2023-10-09T12:02:33.947Z,5.28
2023-10-09T12:05:21.627Z,5.15
2023-10-09T12:08:09.773Z,5.00
2023-10-09T12:10:58.497Z,4.70
2023-10-09T12:13:47.163Z,5.10
2023-10-09T12:16:34.686Z,5.05
2023-10-09T12:19:23.501Z,5.03
2023-10-09T12:22:15.673Z,4.78
2023-10-09T12:25:04.592Z,5.08
2023-10-09T12:27:53.376Z,4.83
2023-10-09T12:30:43.904Z,4.70
2023-10-09T12:33:32.015Z,4.80
2023-10-09T12:36:21.365Z,4.12
2023-10-09T12:39:10.889Z,5.00
2023-10-09T12:41:59.794Z,4.87
2023-10-09T12:44:47.143Z,4.78
2023-10-09T12:47:34.610Z,4.70
2023-10-09T12:50:23.321Z,4.12
2023-10-09T12:53:11.201Z,4.62
2023-10-09T12:55:58.839Z,4.65
2023-10-09T12:58:47.977Z,4.40
2023-10-09T13:01:44.621Z,4.33
2023-10-09T13:04:33.993Z,4.58
2023-10-09T13:07:23.323Z,4.60
2023-10-09T13:10:12.771Z,4.58
2023-10-09T13:13:00.070Z,4.85
2023-10-09T13:15:47.728Z,4.55
2023-10-09T13:18:36.125Z,4.67
2023-10-09T13:21:37.805Z,4.12
2023-10-09T13:24:26.726Z,4.15
2023-10-09T13:27:15.184Z,5.30
2023-10-09T13:30:04.862Z,3.98
2023-10-09T13:32:52.671Z,4.72
2023-10-09T13:35:41.543Z,4.20
2023-10-09T13:38:28.940Z,4.50
2023-10-09T13:41:18.196Z,4.12
2023-10-09T13:44:06.081Z,4.25
2023-10-09T13:46:54.378Z,4.50
2023-10-09T13:49:43.850Z,4.55
2023-10-09T13:52:31.932Z,4.60
2023-10-09T13:55:19.476Z,4.80
2023-10-09T13:58:07.089Z,4.47
2023-10-09T14:00:57.184Z,4.42
2023-10-09T14:03:46.440Z,4.17
2023-10-09T14:06:33.765Z,3.92
2023-10-09T14:09:31.852Z,4.47
2023-10-09T14:12:20.670Z,4.08
2023-10-09T14:15:11.298Z,4.40
2023-10-09T14:17:58.861Z,5.10
2023-10-09T14:21:09.965Z,4.42
2023-10-09T14:23:58.803Z,4.85
2023-10-09T14:26:48.000Z,4.12
2023-10-09T14:29:36.920Z,4.85
2023-10-09T14:32:25.902Z,4.20
2023-10-09T14:35:16.102Z,4.50
2023-10-09T14:38:06.885Z,4.53
2023-10-09T14:40:55.863Z,4.28
2023-10-09T14:43:43.364Z,4.72
2023-10-09T14:46:31.450Z,4.17
2023-10-09T14:49:20.830Z,4.35
2023-10-09T14:52:09.816Z,5.10
2023-10-09T14:54:58.946Z,4.97
2023-10-09T14:57:46.305Z,4.37
2023-10-09T15:00:42.565Z,3.60
2023-10-09T15:03:31.927Z,4.47
2023-10-09T15:06:19.382Z,4.40
2023-10-09T15:09:10.288Z,4.83
2023-10-09T15:11:57.607Z,4.20
2023-10-09T15:14:46.103Z,4.40
2023-10-09T15:17:33.845Z,5.08
2023-10-09T15:20:22.116Z,4.15
2023-10-09T15:23:10.598Z,4.37
2023-10-09T15:25:58.225Z,4.45
2023-10-09T15:28:45.931Z,4.22
2023-10-09T15:31:34.067Z,4.37
2023-10-09T15:34:22.714Z,4.12
2023-10-09T15:37:10.001Z,4.00
2023-10-09T15:39:58.235Z,4.50
2023-10-09T15:42:48.577Z,4.90
2023-10-09T15:45:38.970Z,4.67
2023-10-09T15:48:26.166Z,4.72
2023-10-09T15:51:16.923Z,4.30
2023-10-09T15:54:04.692Z,4.75
2023-10-09T15:57:06.473Z,4.40
2023-10-09T15:59:40.886Z,3.80
2023-10-09T16:02:28.543Z,4.17
2023-10-09T16:05:18.217Z,4.87
2023-10-09T16:08:06.243Z,4.35
2023-10-09T16:10:53.707Z,4.53
2023-10-09T16:13:41.026Z,4.30
2023-10-09T16:16:34.102Z,4.65
2023-10-09T16:19:24.701Z,4.67
2023-10-09T16:22:13.860Z,4.65
2023-10-09T16:25:02.398Z,4.12
2023-10-09T16:27:51.548Z,4.70
2023-10-09T16:30:39.119Z,4.20
2023-10-09T16:33:27.635Z,4.40
2023-10-09T16:36:15.281Z,4.80
2023-10-09T16:39:04.126Z,5.05
2023-10-09T16:41:51.624Z,4.55
2023-10-09T16:44:39.173Z,4.30
2023-10-09T16:47:26.412Z,4.60
2023-10-09T16:50:14.978Z,4.65
2023-10-09T16:53:04.034Z,4.53
2023-10-09T16:55:53.127Z,4.45
2023-10-09T16:58:42.617Z,4.50
2023-10-09T17:01:31.892Z,4.22
2023-10-09T17:04:21.037Z,4.75
2023-10-09T17:07:09.931Z,4.30
2023-10-09T17:09:57.456Z,5.00
2023-10-09T17:12:48.419Z,4.28
2023-10-09T17:15:39.047Z,5.35
2023-10-09T17:18:28.313Z,4.10
2023-10-09T17:21:17.013Z,4.45
2023-10-09T17:24:06.869Z,4.60
2023-10-09T17:26:55.862Z,4.55
2023-10-09T17:29:44.146Z,4.78
2023-10-09T17:32:33.392Z,4.60
2023-10-09T17:35:20.987Z,4.00
2023-10-09T17:38:09.923Z,4.33
2023-10-09T17:40:58.611Z,4.80
2023-10-09T17:43:46.521Z,4.75
2023-10-09T17:46:34.158Z,4.47
2023-10-09T17:49:22.900Z,4.70
2023-10-09T17:52:11.723Z,4.65
2023-10-09T17:55:00.915Z,4.37
2023-10-09T17:57:50.159Z,4.10
2023-10-09T18:00:40.689Z,4.60
2023-10-09T18:03:29.693Z,4.50
2023-10-09T18:06:18.859Z,5.10
2023-10-09T18:09:07.814Z,5.97
2023-10-09T18:11:56.507Z,5.20
2023-10-09T18:14:45.662Z,5.97
2023-10-09T18:17:35.147Z,6.08
2023-10-09T18:20:22.883Z,5.87
2023-10-09T18:23:12.032Z,5.75
2023-10-09T18:26:01.278Z,6.42
2023-10-09T18:28:49.208Z,6.20
2023-10-09T18:31:41.866Z,6.35
2023-10-09T18:34:30.532Z,5.83
2023-10-09T18:37:20.098Z,6.28
2023-10-09T18:40:13.339Z,5.53
2023-10-09T18:43:01.266Z,5.70
2023-10-09T18:45:49.696Z,5.92
2023-10-09T18:48:36.889Z,5.90
2023-10-09T18:51:24.525Z,6.40
2023-10-09T18:54:13.288Z,5.67
2023-10-09T18:57:00.849Z,5.67
2023-10-09T18:59:49.218Z,5.42
2023-10-09T19:02:36.491Z,6.10
2023-10-09T19:05:24.966Z,5.45
2023-10-09T19:08:13.794Z,5.65
2023-10-09T19:11:02.404Z,5.92
2023-10-09T19:13:49.987Z,5.53
2023-10-09T19:16:37.231Z,5.58
2023-10-09T19:21:56.521Z,5.60
2023-10-09T19:24:44.385Z,5.58
2023-10-09T19:27:31.984Z,5.85
2023-10-09T19:30:21.007Z,6.10
2023-10-09T19:33:08.742Z,7.12
2023-10-09T19:36:00.238Z,6.30
2023-10-09T19:38:51.969Z,5.70
2023-10-09T19:41:39.351Z,5.42
2023-10-09T19:44:28.605Z,5.80
2023-10-09T19:47:16.375Z,5.80
2023-10-09T19:50:05.255Z,6.22
2023-10-09T19:52:53.062Z,5.95
2023-10-09T19:55:44.144Z,5.97
2023-10-09T19:58:31.731Z,5.55
2023-10-09T20:01:19.954Z,5.80
2023-10-09T20:04:07.837Z,6.62
2023-10-09T20:06:55.193Z,5.78
2023-10-09T20:09:42.620Z,5.37
2023-10-09T20:12:31.070Z,5.62
2023-10-09T20:15:20.110Z,4.90
2023-10-09T20:18:08.161Z,5.03
2023-10-09T20:20:55.966Z,5.30
2023-10-09T20:23:43.742Z,5.22
2023-10-09T20:26:31.447Z,5.28
2023-10-09T20:29:19.081Z,5.55
2023-10-09T20:32:11.264Z,5.33
2023-10-09T20:34:58.603Z,5.62
2023-10-09T20:37:46.686Z,5.03
2023-10-09T20:40:34.308Z,5.78
2023-10-09T20:43:22.236Z,5.28
2023-10-09T20:46:12.179Z,5.92
2023-10-09T20:49:00.437Z,5.47
2023-10-09T20:51:57.168Z,5.47
2023-10-09T20:54:37.164Z,5.10
2023-10-09T20:57:24.850Z,5.22
2023-10-09T21:00:14.942Z,5.30
2023-10-09T21:03:02.962Z,4.90
2023-10-09T21:05:53.107Z,5.50
2023-10-09T21:08:41.469Z,5.87
2023-10-09T21:11:28.926Z,6.10
2023-10-09T21:14:18.159Z,5.60
2023-10-09T21:17:05.737Z,5.85
2023-10-09T21:19:53.116Z,6.70
2023-10-09T21:22:42.773Z,6.03
2023-10-09T21:25:31.920Z,6.33
2023-10-09T21:28:19.968Z,5.87
2023-10-09T21:31:08.507Z,6.40
2023-10-09T21:33:56.989Z,5.70
2023-10-09T21:36:44.592Z,6.85
2023-10-09T21:39:31.719Z,6.40
2023-10-09T21:42:19.621Z,5.85
2023-10-09T21:45:08.363Z,5.85
2023-10-09T21:47:57.003Z,5.47
2023-10-09T21:50:44.596Z,5.42
2023-10-09T21:53:31.916Z,5.67
2023-10-09T21:56:21.068Z,5.65
2023-10-09T21:59:10.695Z,5.28
2023-10-09T22:01:58.034Z,5.33
2023-10-09T22:04:47.780Z,6.05
2023-10-09T22:07:35.118Z,5.55
2023-10-09T22:10:22.662Z,5.87
2023-10-09T22:13:12.129Z,5.92
2023-10-09T22:15:59.691Z,6.65
2023-10-09T22:18:49.835Z,7.08
2023-10-09T22:21:37.230Z,5.92
2023-10-09T22:24:24.915Z,5.22
2023-10-09T22:27:13.987Z,6.45
2023-10-09T22:30:03.258Z,6.03
2023-10-09T22:32:50.634Z,5.47
2023-10-09T22:35:39.583Z,5.83
2023-10-09T22:38:28.460Z,6.45
2023-10-09T22:41:17.602Z,6.42
2023-10-09T22:44:06.549Z,5.92
2023-10-09T22:46:55.321Z,6.37
2023-10-09T22:49:44.390Z,5.30
2023-10-09T22:52:33.144Z,6.53
2023-10-09T22:55:22.206Z,6.70
2023-10-09T22:58:11.535Z,6.67
2023-10-09T23:01:02.271Z,6.87
2023-10-09T23:04:12.524Z,6.87
2023-10-09T23:07:01.887Z,6.85
2023-10-09T23:09:51.957Z,6.75
2023-10-09T23:12:41.329Z,6.08
2023-10-09T23:15:31.841Z,6.95
2023-10-09T23:18:34.878Z,6.78
2023-10-09T23:21:23.841Z,6.75
2023-10-09T23:24:11.844Z,6.10
2023-10-09T23:26:59.494Z,7.15
2023-10-09T23:29:48.401Z,6.92
2023-10-09T23:32:38.088Z,6.75
2023-10-09T23:35:26.998Z,7.05
2023-10-09T23:38:21.950Z,6.10
2023-10-09T23:41:13.064Z,6.50
2023-10-09T23:44:00.995Z,6.42
2023-10-09T23:46:50.011Z,7.00
2023-10-09T23:49:40.584Z,7.00
2023-10-09T23:52:29.700Z,6.75
2023-10-09T23:55:18.878Z,6.12
2023-10-09T23:58:08.008Z,7.12
